| time (UTC) | temp F | wind direction | speed knots | gust knots | rain 1hr in | rain 24hr in | rain mn in | humidity % | barometer mb |
| 20260507073009 | 46 | 38 | 0.9 | 2.6 | 0.00 | 0.72 | 0.19 | 1 | 1010.7 |
| 20260507071509 | 46 | 38 | 0.9 | 3.5 | 0.00 | 0.72 | 0.19 | 1 | 1010.6 |
| 20260507070012 | 46 | 27 | 1.7 | 5.2 | 0.00 | 0.72 | 0.19 | 1 | 1010.5 |
| 20260507064509 | 47 | 25 | 1.7 | 4.3 | 0.00 | 0.76 | 0.19 | 1 | 1010.3 |
| 20260507063009 | 48 | 338 | 0.0 | 4.3 | 0.00 | 0.76 | 0.19 | 1 | 1010.0 |
| 20260507061514 | 48 | 276 | 0.0 | 0.0 | 0.00 | 0.76 | 0.19 | 1 | 1009.8 |
| 20260507061509 | 48 | 276 | 0.0 | 0.0 | 0.00 | 0.76 | 0.19 | 1 | 1009.8 |
| 20260507060009 | 48 | 276 | 0.0 | 0.0 | 0.00 | 0.76 | 0.19 | 1 | 1009.5 |
| 20260507054509 | 48 | 276 | 0.0 | 0.0 | 0.00 | 0.77 | 0.19 | 1 | 1009.3 |
| 20260507053009 | 48 | 277 | 0.0 | 0.0 | 0.00 | 0.77 | 0.19 | 1 | 1009.2 |
| 20260507051509 | 48 | 277 | 0.0 | 0.0 | 0.00 | 0.77 | 0.19 | 1 | 1008.8 |
| 20260507050009 | 48 | 277 | 0.0 | 0.0 | 0.00 | 0.77 | 0.19 | 1 | 1008.8 |
| 20260507044517 | 48 | 277 | 0.0 | 0.0 | 0.00 | 0.77 | 0.19 | 1 | 1008.5 |
| 20260507044509 | 48 | 277 | 0.0 | 0.0 | 0.00 | 0.77 | 0.19 | 1 | 1008.5 |
| 20260507043613 | 48 | 277 | 0.0 | 0.0 | 0.00 | 0.77 | 0.19 | 1 | 1008.4 |
| 20260507043015 | 48 | 277 | 0.0 | 0.0 | 0.00 | 0.77 | 0.19 | 1 | 1008.4 |
| 20260507043009 | 48 | 277 | 0.0 | 0.0 | 0.00 | 0.77 | 0.19 | 1 | 1008.4 |
| 20260507041509 | 48 | 277 | 0.0 | 0.0 | 0.01 | 0.77 | 0.19 | 1 | 1008.3 |
| 20260507040009 | 48 | 277 | 0.0 | 0.0 | 0.01 | 0.77 | 0.19 | 1 | 1008.1 |
| 20260507034509 | 48 | 277 | 0.0 | 0.0 | 0.01 | 0.78 | 0.19 | 1 | 1008.1 |
| 20260507033009 | 48 | 277 | 0.0 | 0.0 | 0.01 | 0.78 | 0.19 | 1 | 1008.0 |
| 20260507031546 | 48 | 277 | 0.0 | 0.0 | 0.00 | 0.77 | 0.18 | 1 | 1008.0 |
| 20260507031509 | 48 | 277 | 0.0 | 0.0 | 0.00 | 0.77 | 0.18 | 1 | 1008.0 |
| 20260507030125 | 48 | 277 | 0.0 | 0.0 | 0.01 | 0.77 | 0.18 | 1 | 1007.9 |
| 20260507030009 | 48 | 277 | 0.0 | 0.0 | 0.01 | 0.77 | 0.18 | 1 | 1007.9 |
| 20260507024509 | 47 | 277 | 0.0 | 0.0 | 0.02 | 0.92 | 0.18 | 1 | 1007.8 |
| 20260507023009 | 48 | 277 | 0.0 | 0.0 | 0.07 | 0.92 | 0.18 | 1 | 1007.9 |
| 20260507021509 | 48 | 277 | 0.0 | 0.0 | 0.14 | 0.92 | 0.18 | 1 | 1007.7 |
| 20260507020009 | 48 | 277 | 0.0 | 0.0 | 0.16 | 0.91 | 0.17 | 1 | 1007.7 |
| 20260507014509 | 48 | 277 | 0.0 | 0.0 | 0.15 | 1.11 | 0.16 | 1 | 1007.7 |
| 20260507013009 | 48 | 277 | 0.0 | 0.0 | 0.10 | 1.06 | 0.11 | 1 | 1007.7 |
| 20260507011509 | 48 | 277 | 0.0 | 0.0 | 0.03 | 0.99 | 0.04 | 1 | 1007.6 |
| 20260507010009 | 48 | 277 | 0.0 | 0.0 | 0.00 | 0.96 | 0.01 | 1 | 1007.4 |
| 20260507004509 | 48 | 277 | 0.9 | 2.6 | 0.00 | 1.24 | 0.01 | 1 | 1007.4 |
| 20260507003009 | 48 | 277 | 0.0 | 0.0 | 0.00 | 1.24 | 0.01 | 1 | 1007.4 |
| 20260507001509 | 48 | 277 | 0.9 | 2.6 | 0.00 | 1.24 | 0.01 | 1 | 1007.4 |
| 20260507000009 | 48 | 277 | 0.9 | 3.5 | 0.01 | 1.24 | 0.01 | 1 | 1007.3 |
| 20260506234515 | 48 | 277 | 0.9 | 2.6 | 0.01 | 1.40 | 0.01 | 1 | 1007.3 |
| 20260506234509 | 48 | 277 | 0.9 | 2.6 | 0.01 | 1.40 | 0.01 | 1 | 1007.3 |
| 20260506233009 | 48 | 277 | 1.7 | 5.2 | 0.01 | 1.40 | 0.01 | 1 | 1007.3 |
| 20260506231509 | 48 | 277 | 0.9 | 3.5 | 0.01 | 1.40 | 0.01 | 1 | 1007.2 |
| 20260506230009 | 48 | 278 | 0.9 | 1.7 | 0.00 | 1.39 | 0.00 | 1 | 1007.1 |
| 20260506224509 | 48 | 281 | 1.7 | 3.5 | 0.00 | 1.67 | 0.00 | 1 | 1007.1 |
| 20260506223009 | 48 | 273 | 1.7 | 7.0 | 0.00 | 1.67 | 0.00 | 1 | 1007.1 |
| 20260506221509 | 48 | 275 | 1.7 | 6.1 | 0.01 | 1.67 | 0.00 | 1 | 1007.0 |
| 20260506220010 | 48 | 272 | 1.7 | 6.1 | 0.01 | 1.67 | 0.00 | 1 | 1007.0 |
| 20260506214515 | 48 | 292 | 2.6 | 7.0 | 0.02 | 1.77 | 1.75 | 1 | 1006.9 |
| 20260506214509 | 48 | 292 | 2.6 | 7.0 | 0.02 | 1.77 | 1.75 | 1 | 1006.9 |
| 20260506213010 | 49 | 273 | 2.6 | 7.0 | 0.02 | 1.77 | 1.75 | 1 | 1006.9 |
| 20260506211510 | 49 | 284 | 1.7 | 7.0 | 0.01 | 1.76 | 1.74 | 1 | 1006.7 |
| 20260506210010 | 50 | 290 | 0.9 | 7.0 | 0.01 | 1.76 | 1.74 | 1 | 1006.7 |
| 20260506204510 | 50 | 289 | 1.7 | 4.3 | 0.00 | 1.83 | 1.73 | 1 | 1006.7 |
| 20260506203010 | 51 | 262 | 0.9 | 5.2 | 0.00 | 1.83 | 1.73 | 1 | 1006.5 |
| 20260506201510 | 51 | 256 | 0.0 | 4.3 | 0.00 | 1.83 | 1.73 | 1 | 1006.3 |
| 20260506200010 | 51 | 256 | 0.0 | 0.0 | 0.00 | 1.83 | 1.73 | 1 | 1006.2 |
| 20260506194510 | 51 | 256 | 0.0 | 0.0 | 0.00 | 1.97 | 1.73 | 1 | 1006.2 |
| 20260506193205 | 52 | 256 | 0.0 | 0.0 | 0.00 | 1.97 | 1.73 | 1 | 1006.0 |
| 20260506193010 | 52 | 256 | 0.0 | 0.0 | 0.00 | 1.97 | 1.73 | 1 | 1006.0 |
| 20260506191510 | 52 | 256 | 0.0 | 0.0 | 0.00 | 1.97 | 1.73 | 1 | 1005.8 |
| 20260506190010 | 52 | 256 | 0.0 | 0.0 | 0.00 | 1.97 | 1.73 | 1 | 1005.6 |
| 20260506184510 | 52 | 256 | 0.9 | 4.3 | 0.00 | 2.00 | 1.73 | 1 | 1005.5 |
| 20260506183010 | 52 | 257 | 0.9 | 4.3 | 0.00 | 2.00 | 1.73 | 1 | 1005.0 |
| 20260506181924 | 52 | 257 | 1.7 | 7.8 | 0.00 | 2.00 | 1.73 | 1 | 1005.0 |
| 20260506181510 | 52 | 257 | 1.7 | 7.8 | 0.00 | 2.00 | 1.73 | 1 | 1005.0 |
| 20260506180010 | 53 | 259 | 0.9 | 2.6 | 0.00 | 2.00 | 1.73 | 1 | 1004.9 |
| 20260506174515 | 53 | 257 | 1.7 | 6.1 | 0.00 | 2.04 | 1.73 | 1 | 1004.8 |
| 20260506174510 | 53 | 257 | 1.7 | 6.1 | 0.00 | 2.04 | 1.73 | 1 | 1004.8 |
| 20260506173010 | 53 | 261 | 0.9 | 5.2 | 0.00 | 2.04 | 1.73 | 1 | 1004.9 |
| 20260506171510 | 54 | 292 | 1.7 | 5.2 | 0.00 | 2.04 | 1.73 | 1 | 1004.8 |
| 20260506170010 | 54 | 265 | 2.6 | 8.7 | 0.00 | 2.04 | 1.73 | 1 | 1004.8 |
| 20260506164851 | 55 | 287 | 1.7 | 7.8 | 0.00 | 2.12 | 1.73 | 1 | 1004.6 |
| 20260506164510 | 55 | 287 | 1.7 | 7.8 | 0.00 | 2.12 | 1.73 | 1 | 1004.6 |
| 20260506163010 | 55 | 261 | 3.5 | 9.6 | 0.00 | 2.12 | 1.73 | 1 | 1004.6 |
| 20260506162010 | 57 | 255 | 2.6 | 8.7 | 0.00 | 2.12 | 1.73 | 1 | 1004.3 |
| 20260506161510 | 57 | 255 | 2.6 | 8.7 | 0.00 | 2.12 | 1.73 | 1 | 1004.3 |
| 20260506160010 | 57 | 281 | 1.7 | 6.1 | 0.00 | 2.12 | 1.73 | 1 | 1004.3 |
| 20260506154510 | 57 | 299 | 2.6 | 7.0 | 0.00 | 2.13 | 1.73 | 1 | 1004.3 |
| 20260506153010 | 58 | 275 | 4.3 | 8.7 | 0.00 | 2.13 | 1.73 | 1 | 1004.4 |
| 20260506151510 | 58 | 284 | 3.5 | 7.0 | 0.00 | 2.13 | 1.73 | 1 | 1004.4 |
| 20260506150010 | 59 | 297 | 2.6 | 7.8 | 0.00 | 2.13 | 1.73 | 1 | 1004.4 |
| 20260506144510 | 60 | 308 | 1.7 | 6.1 | 0.00 | 2.13 | 1.73 | 1 | 1004.3 |
| 20260506143010 | 60 | 274 | 1.7 | 3.5 | 0.00 | 2.13 | 1.73 | 1 | 1004.2 |
| 20260506141510 | 59 | 265 | 0.0 | 0.0 | 0.00 | 2.13 | 1.73 | 1 | 1004.4 |
| 20260506140010 | 59 | 265 | 0.0 | 2.6 | 0.00 | 2.13 | 1.73 | 1 | 1004.4 |
| 20260506134510 | 58 | 265 | 0.0 | 0.0 | 0.01 | 2.13 | 1.73 | 1 | 1004.5 |
| 20260506133010 | 58 | 264 | 0.9 | 5.2 | 0.08 | 2.13 | 1.73 | 1 | 1004.6 |
| 20260506131735 | 59 | 41 | 0.0 | 0.0 | 0.17 | 2.13 | 1.73 | 1 | 1004.5 |
| 20260506131510 | 59 | 41 | 0.0 | 0.0 | 0.17 | 2.13 | 1.73 | 1 | 1004.5 |
| 20260506130010 | 57 | 41 | 0.0 | 0.0 | 0.23 | 2.13 | 1.73 | 1 | 1004.4 |
| 20260506124510 | 56 | 41 | 0.0 | 0.0 | 0.23 | 2.12 | 1.72 | 1 | 1004.4 |
| 20260506123010 | 55 | 41 | 0.0 | 0.0 | 0.23 | 2.05 | 1.65 | 1 | 1004.5 |
| 20260506121510 | 55 | 41 | 0.0 | 4.3 | 0.20 | 1.96 | 1.56 | 1 | 1004.2 |
| 20260506120010 | 55 | 41 | 1.7 | 3.5 | 0.24 | 1.90 | 1.50 | 1 | 1004.2 |
| 20260506114510 | 56 | 40 | 0.0 | 4.3 | 0.24 | 1.89 | 1.49 | 1 | 1004.2 |
| 20260506113010 | 55 | 40 | 0.0 | 0.0 | 0.17 | 1.82 | 1.42 | 1 | 1004.1 |
| 20260506111510 | 55 | 40 | 0.0 | 0.0 | 0.11 | 1.76 | 1.36 | 1 | 1004.1 |
| 20260506110010 | 56 | 40 | 0.0 | 0.0 | 0.01 | 1.66 | 1.26 | 1 | 1004.1 |
| 20260506104510 | 56 | 36 | 0.0 | 0.0 | 0.00 | 1.65 | 1.25 | 1 | 1004.1 |
| 20260506103010 | 56 | 36 | 1.7 | 5.2 | 0.00 | 1.65 | 1.25 | 1 | 1004.1 |
| 20260506101510 | 56 | 20 | 0.9 | 0.0 | 0.00 | 1.65 | 1.25 | 1 | 1004.0 |
| 20260506100010 | 56 | 13 | 0.0 | 0.0 | 0.00 | 1.65 | 1.25 | 1 | 1004.0 |
| 20260506094510 | 55 | 13 | 0.0 | 0.0 | 0.00 | 1.65 | 1.25 | 1 | 1004.0 |
| 20260506093010 | 55 | 13 | 0.0 | 0.0 | 0.01 | 1.65 | 1.25 | 1 | 1004.0 |
| 20260506091510 | 55 | 13 | 0.0 | 0.0 | 0.02 | 1.65 | 1.25 | 1 | 1003.8 |
| 20260506090010 | 53 | 13 | 0.0 | 0.0 | 0.03 | 1.65 | 1.25 | 1 | 1004.0 |
| 20260506084516 | 53 | 13 | 0.0 | 0.0 | 0.03 | 1.65 | 1.25 | 1 | 1004.0 |
| 20260506084510 | 53 | 13 | 0.0 | 0.0 | 0.03 | 1.65 | 1.25 | 1 | 1004.0 |
| 20260506083016 | 53 | 13 | 0.0 | 0.0 | 0.03 | 1.64 | 1.24 | 1 | 1003.9 |
| 20260506083010 | 53 | 13 | 0.0 | 0.0 | 0.03 | 1.64 | 1.24 | 1 | 1003.9 |
| 20260506081510 | 53 | 13 | 0.0 | 0.0 | 0.04 | 1.63 | 1.23 | 1 | 1003.7 |